sensor_id;sensor_type;location;lat;lon;timestamp;pressure;altitude;pressure_sealevel;temperature;humidity
11519;BME280;5816;48.228;14.116;2023-02-11T06:50:14;99875.38;;;-1.57;96.93
11519;BME280;5816;48.228;14.116;2023-02-11T06:55:16;99861.38;;;-1.56;97.18
11519;BME280;5816;48.228;14.116;2023-02-11T07:00:17;99898.00;;;-1.38;97.41
11519;BME280;5816;48.228;14.116;2023-02-11T07:05:20;99874.28;;;-1.33;96.38
11519;BME280;5816;48.228;14.116;2023-02-11T07:10:22;99903.81;;;-1.06;94.93
11519;BME280;5816;48.228;14.116;2023-02-11T07:15:23;99856.56;;;-1.14;94.22
11519;BME280;5816;48.228;14.116;2023-02-11T07:20:25;99861.63;;;-0.96;93.64
11519;BME280;5816;48.228;14.116;2023-02-11T07:25:27;99844.91;;;-0.92;92.90
11519;BME280;5816;48.228;14.116;2023-02-11T07:30:29;99860.47;;;-0.73;93.02
11519;BME280;5816;48.228;14.116;2023-02-11T07:35:31;99883.25;;;-0.72;93.08
11519;BME280;5816;48.228;14.116;2023-02-11T07:40:32;99887.66;;;-0.74;92.87
11519;BME280;5816;48.228;14.116;2023-02-11T07:45:37;99894.63;;;-0.69;92.61
11519;BME280;5816;48.228;14.116;2023-02-11T07:50:39;99901.63;;;-0.68;91.12
11519;BME280;5816;48.228;14.116;2023-02-11T07:55:44;99897.78;;;-0.42;90.21
11519;BME280;5816;48.228;14.116;2023-02-11T08:00:45;99894.09;;;-0.29;90.17
11519;BME280;5816;48.228;14.116;2023-02-11T08:05:47;99891.34;;;-0.21;89.99
11519;BME280;5816;48.228;14.116;2023-02-11T08:10:49;99892.81;;;-0.02;89.38
11519;BME280;5816;48.228;14.116;2023-02-11T08:15:51;99866.72;;;-0.17;89.22
11519;BME280;5816;48.228;14.116;2023-02-11T08:20:53;99849.88;;;-0.06;88.91
11519;BME280;5816;48.228;14.116;2023-02-11T08:25:55;99863.63;;;0.12;87.71
11519;BME280;5816;48.228;14.116;2023-02-11T08:30:56;99855.56;;;0.22;86.83
11519;BME280;5816;48.228;14.116;2023-02-11T08:35:58;99867.25;;;0.59;86.19
11519;BME280;5816;48.228;14.116;2023-02-11T08:41:00;99832.28;;;0.49;85.79
11519;BME280;5816;48.228;14.116;2023-02-11T08:46:02;99863.69;;;0.61;85.95
11519;BME280;5816;48.228;14.116;2023-02-11T08:51:09;99875.81;;;0.71;85.67
11519;BME280;5816;48.228;14.116;2023-02-11T08:56:13;99865.03;;;0.84;84.40
11519;BME280;5816;48.228;14.116;2023-02-11T09:01:20;99869.41;;;1.29;84.33
11519;BME280;5816;48.228;14.116;2023-02-11T09:06:24;99869.53;;;1.23;83.57
11519;BME280;5816;48.228;14.116;2023-02-11T09:11:32;99868.75;;;1.20;83.27
11519;BME280;5816;48.228;14.116;2023-02-11T09:16:37;99868.88;;;1.12;82.59
11519;BME280;5816;48.228;14.116;2023-02-11T09:21:40;99834.97;;;0.92;81.96
11519;BME280;5816;48.228;14.116;2023-02-11T09:26:43;99874.00;;;1.20;81.28
11519;BME280;5816;48.228;14.116;2023-02-11T09:31:45;99833.47;;;1.22;81.15
11519;BME280;5816;48.228;14.116;2023-02-11T09:36:48;99859.63;;;1.34;81.32
11519;BME280;5816;48.228;14.116;2023-02-11T09:47:32;99860.53;;;1.32;80.23
11519;BME280;5816;48.228;14.116;2023-02-11T09:52:59;99861.72;;;1.59;80.45
11519;BME280;5816;48.228;14.116;2023-02-11T09:58:06;99868.69;;;1.63;79.96
11519;BME280;5816;48.228;14.116;2023-02-11T10:24:30;99844.44;;;1.84;80.51
11519;BME280;5816;48.228;14.116;2023-02-11T10:29:37;99860.78;;;2.02;80.10
11519;BME280;5816;48.228;14.116;2023-02-11T10:34:49;99844.03;;;2.03;79.98
11519;BME280;5816;48.228;14.116;2023-02-11T10:39:55;99838.16;;;2.26;79.34
11519;BME280;5816;48.228;14.116;2023-02-11T10:45:04;99818.28;;;2.11;79.19
11519;BME280;5816;48.228;14.116;2023-02-11T10:50:19;99816.44;;;2.13;79.25
11519;BME280;5816;48.228;14.116;2023-02-11T10:55:25;99827.88;;;2.13;79.14
11519;BME280;5816;48.228;14.116;2023-02-11T11:00:39;99806.38;;;2.27;79.25
11519;BME280;5816;48.228;14.116;2023-02-11T11:05:50;99794.47;;;2.11;78.77
11519;BME280;5816;48.228;14.116;2023-02-11T11:11:11;99823.56;;;2.11;79.17
11519;BME280;5816;48.228;14.116;2023-02-11T11:21:29;99812.50;;;2.29;79.13
11519;BME280;5816;48.228;14.116;2023-02-11T11:26:44;99797.69;;;2.22;79.05
11519;BME280;5816;48.228;14.116;2023-02-11T11:32:00;99800.28;;;2.25;79.22
11519;BME280;5816;48.228;14.116;2023-02-11T11:37:27;99784.88;;;2.41;78.96
11519;BME280;5816;48.228;14.116;2023-02-11T11:42:33;99779.53;;;2.44;79.07
11519;BME280;5816;48.228;14.116;2023-02-11T11:47:42;99780.41;;;2.44;79.40
11519;BME280;5816;48.228;14.116;2023-02-11T11:52:59;99779.97;;;2.60;79.14
11519;BME280;5816;48.228;14.116;2023-02-11T11:58:03;99757.81;;;2.64;79.22
11519;BME280;5816;48.228;14.116;2023-02-11T12:08:43;99741.88;;;2.67;79.38
11519;BME280;5816;48.228;14.116;2023-02-11T12:29:59;99721.22;;;3.09;78.67
11519;BME280;5816;48.228;14.116;2023-02-11T12:45:27;99698.69;;;3.52;77.80
11519;BME280;5816;48.228;14.116;2023-02-11T12:56:20;99675.88;;;3.20;78.27
11519;BME280;5816;48.228;14.116;2023-02-11T13:01:37;99677.22;;;3.33;77.86
11519;BME280;5816;48.228;14.116;2023-02-11T13:06:51;99692.66;;;3.48;78.07
11519;BME280;5816;48.228;14.116;2023-02-11T13:11:57;99688.97;;;3.52;78.41
11519;BME280;5816;48.228;14.116;2023-02-11T13:17:26;99681.63;;;3.61;78.39
11519;BME280;5816;48.228;14.116;2023-02-11T13:22:38;99675.78;;;3.51;78.09
11519;BME280;5816;48.228;14.116;2023-02-11T13:27:52;99692.53;;;3.51;78.58
11519;BME280;5816;48.228;14.116;2023-02-11T13:38:19;99638.72;;;3.23;79.31
11519;BME280;5816;48.228;14.116;2023-02-11T13:43:24;99665.31;;;3.46;78.67
11519;BME280;5816;48.228;14.116;2023-02-11T13:48:47;99686.00;;;3.35;79.12
11519;BME280;5816;48.228;14.116;2023-02-11T13:53:55;99686.00;;;3.35;79.26
11519;BME280;5816;48.228;14.116;2023-02-11T13:59:00;99687.53;;;3.42;78.96
11519;BME280;5816;48.228;14.116;2023-02-11T14:09:40;99691.19;;;3.38;79.17
11519;BME280;5816;48.228;14.116;2023-02-11T14:15:00;99687.81;;;3.33;79.36
11519;BME280;5816;48.228;14.116;2023-02-11T14:20:40;99703.13;;;3.51;79.28
11519;BME280;5816;48.228;14.116;2023-02-11T14:25:57;99647.38;;;3.28;79.69
11519;BME280;5816;48.228;14.116;2023-02-11T14:31:21;99673.88;;;3.28;79.57
11519;BME280;5816;48.228;14.116;2023-02-11T14:36:43;99676.97;;;3.41;79.89
11519;BME280;5816;48.228;14.116;2023-02-11T14:41:49;99676.94;;;3.42;80.46
11519;BME280;5816;48.228;14.116;2023-02-11T14:46:54;99677.94;;;3.38;80.84
11519;BME280;5816;48.228;14.116;2023-02-11T14:52:23;99668.28;;;3.37;80.53
11519;BME280;5816;48.228;14.116;2023-02-11T15:03:35;99667.38;;;3.65;79.77
11519;BME280;5816;48.228;14.116;2023-02-11T15:08:42;99664.44;;;3.46;80.39
11519;BME280;5816;48.228;14.116;2023-02-11T15:13:47;99667.88;;;3.49;80.70
11519;BME280;5816;48.228;14.116;2023-02-11T15:18:55;99674.25;;;3.44;80.63
11519;BME280;5816;48.228;14.116;2023-02-11T15:29:02;99676.28;;;3.36;80.26
11519;BME280;5816;48.228;14.116;2023-02-11T15:34:07;99679.44;;;3.47;80.24
11519;BME280;5816;48.228;14.116;2023-02-11T15:39:27;99675.22;;;3.41;80.59
11519;BME280;5816;48.228;14.116;2023-02-11T15:44:31;99666.94;;;3.24;81.24
11519;BME280;5816;48.228;14.116;2023-02-11T15:49:33;99663.09;;;3.34;80.78
11519;BME280;5816;48.228;14.116;2023-02-11T15:54:36;99659.72;;;3.29;80.77
11519;BME280;5816;48.228;14.116;2023-02-11T15:59:40;99679.97;;;3.30;80.60
11519;BME280;5816;48.228;14.116;2023-02-11T16:05:26;99690.13;;;3.16;81.11
11519;BME280;5816;48.228;14.116;2023-02-11T16:10:33;99699.84;;;3.15;81.59
11519;BME280;5816;48.228;14.116;2023-02-11T16:15:44;99707.06;;;3.10;81.89
11519;BME280;5816;48.228;14.116;2023-02-11T16:20:47;99708.03;;;3.08;81.98
11519;BME280;5816;48.228;14.116;2023-02-11T16:25:59;99706.56;;;2.97;82.32
11519;BME280;5816;48.228;14.116;2023-02-11T16:31:02;99717.16;;;2.97;82.54
11519;BME280;5816;48.228;14.116;2023-02-11T16:36:12;99704.25;;;2.87;82.63
11519;BME280;5816;48.228;14.116;2023-02-11T16:41:14;99718.66;;;2.45;85.36
11519;BME280;5816;48.228;14.116;2023-02-11T16:46:15;99720.06;;;2.59;85.56
11519;BME280;5816;48.228;14.116;2023-02-11T16:51:17;99721.03;;;2.55;85.34
11519;BME280;5816;48.228;14.116;2023-02-11T16:56:19;99699.97;;;2.52;84.54
11519;BME280;5816;48.228;14.116;2023-02-11T17:01:20;99719.94;;;2.62;84.13
11519;BME280;5816;48.228;14.116;2023-02-11T17:06:22;99717.19;;;2.66;84.24
11519;BME280;5816;48.228;14.116;2023-02-11T17:11:24;99698.56;;;2.38;84.77
11519;BME280;5816;48.228;14.116;2023-02-11T17:16:26;99711.00;;;2.35;85.50
11519;BME280;5816;48.228;14.116;2023-02-11T17:21:30;99716.06;;;2.44;85.71
11519;BME280;5816;48.228;14.116;2023-02-11T17:26:32;99723.13;;;2.43;85.97
11519;BME280;5816;48.228;14.116;2023-02-11T17:31:37;99715.38;;;2.36;86.26
11519;BME280;5816;48.228;14.116;2023-02-11T17:36:39;99750.44;;;2.42;86.41
11519;BME280;5816;48.228;14.116;2023-02-11T17:41:41;99739.66;;;2.52;86.84
11519;BME280;5816;48.228;14.116;2023-02-11T17:46:43;99755.25;;;2.61;86.66
11519;BME280;5816;48.228;14.116;2023-02-11T17:51:45;99753.78;;;2.51;86.80
11519;BME280;5816;48.228;14.116;2023-02-11T17:56:47;99758.81;;;2.60;86.83
11519;BME280;5816;48.228;14.116;2023-02-11T18:01:51;99765.84;;;2.61;86.63
11519;BME280;5816;48.228;14.116;2023-02-11T18:06:53;99753.53;;;2.60;87.04
11519;BME280;5816;48.228;14.116;2023-02-11T18:11:54;99762.81;;;2.74;87.10
11519;BME280;5816;48.228;14.116;2023-02-11T18:16:56;99770.69;;;2.76;86.82
11519;BME280;5816;48.228;14.116;2023-02-11T18:21:58;99777.72;;;2.77;86.74
11519;BME280;5816;48.228;14.116;2023-02-11T18:27:01;99703.94;;;2.35;87.13
11519;BME280;5816;48.228;14.116;2023-02-11T18:32:03;99766.97;;;2.52;87.70
11519;BME280;5816;48.228;14.116;2023-02-11T18:37:05;99767.53;;;2.31;88.70
11519;BME280;5816;48.228;14.116;2023-02-11T18:42:07;99771.78;;;2.36;89.38
11519;BME280;5816;48.228;14.116;2023-02-11T18:47:09;99770.75;;;2.42;89.33
11519;BME280;5816;48.228;14.116;2023-02-11T18:52:11;99776.59;;;2.55;89.02
11519;BME280;5816;48.228;14.116;2023-02-11T18:57:12;99756.25;;;2.24;88.96
11519;BME280;5816;48.228;14.116;2023-02-11T19:02:14;99759.63;;;2.29;89.55
11519;BME280;5816;48.228;14.116;2023-02-11T19:07:16;99773.69;;;2.31;90.13
11519;BME280;5816;48.228;14.116;2023-02-11T19:12:18;99780.31;;;2.47;89.97
11519;BME280;5816;48.228;14.116;2023-02-11T19:17:20;99771.34;;;2.19;90.41
11519;BME280;5816;48.228;14.116;2023-02-11T19:22:22;99790.22;;;2.39;90.51
11519;BME280;5816;48.228;14.116;2023-02-11T19:27:24;99795.56;;;2.36;90.75
11519;BME280;5816;48.228;14.116;2023-02-11T19:32:26;99785.72;;;2.09;91.78
11519;BME280;5816;48.228;14.116;2023-02-11T19:37:28;99802.69;;;2.34;91.70
11519;BME280;5816;48.228;14.116;2023-02-11T19:42:30;99780.34;;;2.46;90.83
11519;BME280;5816;48.228;14.116;2023-02-11T19:47:32;99766.41;;;2.39;90.77
11519;BME280;5816;48.228;14.116;2023-02-11T19:52:38;99771.53;;;2.45;90.26
11519;BME280;5816;48.228;14.116;2023-02-11T19:57:41;99798.13;;;2.73;90.04
11519;BME280;5816;48.228;14.116;2023-02-11T20:02:44;99799.84;;;2.74;89.72
11519;BME280;5816;48.228;14.116;2023-02-11T20:07:47;99809.63;;;2.72;89.56
11519;BME280;5816;48.228;14.116;2023-02-11T20:12:49;99807.69;;;2.78;89.24
11519;BME280;5816;48.228;14.116;2023-02-11T20:17:54;99785.16;;;2.63;89.66
11519;BME280;5816;48.228;14.116;2023-02-11T20:22:55;99811.31;;;2.75;89.80
11519;BME280;5816;48.228;14.116;2023-02-11T20:27:58;99788.41;;;2.74;89.71
11519;BME280;5816;48.228;14.116;2023-02-11T20:33:00;99797.09;;;2.79;89.25
11519;BME280;5816;48.228;14.116;2023-02-11T20:38:02;99777.13;;;2.67;89.44
11519;BME280;5816;48.228;14.116;2023-02-11T20:43:04;99786.34;;;2.85;89.38
11519;BME280;5816;48.228;14.116;2023-02-11T20:48:09;99780.78;;;2.94;88.92
11519;BME280;5816;48.228;14.116;2023-02-11T20:53:11;99788.13;;;2.83;88.83
11519;BME280;5816;48.228;14.116;2023-02-11T20:58:13;99793.38;;;2.86;89.28
11519;BME280;5816;48.228;14.116;2023-02-11T21:03:14;99798.88;;;2.77;89.23
11519;BME280;5816;48.228;14.116;2023-02-11T21:08:16;99795.59;;;2.69;90.17
11519;BME280;5816;48.228;14.116;2023-02-11T21:13:18;99788.25;;;2.80;89.64
11519;BME280;5816;48.228;14.116;2023-02-11T21:18:21;99788.19;;;2.82;89.47
11519;BME280;5816;48.228;14.116;2023-02-11T21:23:23;99793.44;;;2.83;90.03
11519;BME280;5816;48.228;14.116;2023-02-11T21:28:25;99788.25;;;2.80;90.22
11519;BME280;5816;48.228;14.116;2023-02-11T21:33:27;99796.06;;;2.83;90.43
11519;BME280;5816;48.228;14.116;2023-02-11T21:38:29;99808.97;;;2.95;90.03
11519;BME280;5816;48.228;14.116;2023-02-11T21:43:32;99804.44;;;3.00;89.77
11519;BME280;5816;48.228;14.116;2023-02-11T21:48:34;99804.53;;;2.96;89.68
11519;BME280;5816;48.228;14.116;2023-02-11T21:53:37;99801.13;;;2.92;89.63
11519;BME280;5816;48.228;14.116;2023-02-11T21:58:39;99822.03;;;3.01;90.16
